Time;durP1;ratioP1;P1;durP2;ratioP2;P2;SDS_P1;SDS_P2;PMS_P1;PMS_P2;Temp;Humidity;BMP_temperature;BMP_pressure;BME280_temperature;BME280_humidity;BME280_pressure;Samples;Min_cycle;Max_cycle;Signal;HPM_P1;HPM_P2
2022/08/11 00:00:43;;;;;;;7.53;6.18;;;18.60;80.70;;;;;;2105767;28;20068;-70
2022/08/11 00:01:53;;;;;;;7.00;5.95;;;18.60;80.90;;;;;;2108007;28;20424;-70
2022/08/11 00:02:54;;;;;;;6.55;5.90;;;18.50;80.90;;;;;;2106830;28;20059;-70
2022/08/11 00:04:01;;;;;;;8.45;6.45;;;18.50;81.10;;;;;;2097601;28;20660;-71
2022/08/11 00:05:13;;;;;;;9.25;6.28;;;18.50;81.00;;;;;;2097239;28;20048;-72
2022/08/11 00:06:22;;;;;;;6.90;6.20;;;18.50;81.20;;;;;;2106780;28;20046;-71
2022/08/11 00:07:25;;;;;;;7.07;5.80;;;18.50;81.20;;;;;;2106998;28;20842;-71
2022/08/11 00:08:29;;;;;;;7.30;6.20;;;18.40;81.50;;;;;;2105909;28;20162;-71
2022/08/11 00:09:37;;;;;;;7.82;5.93;;;18.40;81.50;;;;;;2105495;28;20028;-71
2022/08/11 00:10:38;;;;;;;6.30;5.70;;;18.40;81.70;;;;;;2105387;28;20028;-71
2022/08/11 00:11:44;;;;;;;6.30;5.70;;;18.40;81.80;;;;;;2105111;28;20119;-71
2022/08/11 00:12:55;;;;;;;6.72;5.80;;;18.40;81.90;;;;;;2105166;28;20040;-71
2022/08/11 00:13:56;;;;;;;;;;;18.40;82.10;;;;;;2105304;28;20035;-73
2022/08/11 00:14:59;;;;;;;7.95;6.38;;;18.40;82.20;;;;;;2105088;28;19977;-72
2022/08/11 00:16:02;;;;;;;10.73;6.18;;;18.40;82.30;;;;;;2105314;28;20494;-71
2022/08/11 00:17:07;;;;;;;6.55;5.80;;;18.30;82.40;;;;;;2104595;28;20486;-71
2022/08/11 00:18:10;;;;;;;6.60;5.75;;;18.30;82.50;;;;;;2105143;28;20045;-71
2022/08/11 00:19:21;;;;;;;7.80;5.97;;;18.30;82.70;;;;;;2106257;28;20035;-71
2022/08/11 00:20:27;;;;;;;7.60;5.50;;;18.30;82.80;;;;;;2105983;28;20119;-71
2022/08/11 00:21:39;;;;;;;6.32;5.65;;;18.30;82.90;;;;;;2108999;28;20510;-71
2022/08/11 00:22:42;;;;;;;6.50;5.60;;;18.20;82.80;;;;;;2107606;28;20036;-71
2022/08/11 00:23:52;;;;;;;7.60;6.53;;;18.20;82.90;;;;;;2107719;28;20028;-71
2022/08/11 00:24:53;;;;;;;9.13;6.28;;;18.20;83.00;;;;;;2105492;28;20047;-72
2022/08/11 00:25:54;;;;;;;7.57;6.30;;;18.20;83.20;;;;;;2104400;28;20058;-71
2022/08/11 00:26:55;;;;;;;7.13;6.28;;;18.20;83.30;;;;;;2104396;28;20048;-71
2022/08/11 00:27:55;;;;;;;7.35;6.03;;;18.20;83.40;;;;;;2104120;28;20027;-71
2022/08/11 00:29:09;;;;;;;10.30;6.60;;;18.20;83.60;;;;;;2104290;28;20081;-71
2022/08/11 00:30:12;;;;;;;8.55;6.43;;;18.10;83.70;;;;;;2097703;28;20032;-71
2022/08/11 00:31:30;;;;;;;7.93;6.15;;;18.10;83.90;;;;;;2096377;28;20564;-71
2022/08/11 00:32:32;;;;;;;7.25;6.32;;;18.10;84.10;;;;;;2104890;28;20020;-71
2022/08/11 00:33:43;;;;;;;7.25;6.45;;;18.10;84.40;;;;;;2105035;28;20024;-71
2022/08/11 00:34:45;;;;;;;7.18;6.40;;;18.10;84.50;;;;;;2104704;28;20204;-71
2022/08/11 00:35:50;;;;;;;8.68;6.40;;;18.10;84.70;;;;;;2104066;28;20078;-70
2022/08/11 00:36:54;;;;;;;8.60;6.15;;;18.10;84.70;;;;;;2104603;28;20024;-71
2022/08/11 00:37:58;;;;;;;6.50;5.90;;;18.10;84.70;;;;;;2089600;28;20021;-71
2022/08/11 00:39:05;;;;;;;7.85;6.20;;;18.10;84.80;;;;;;2095838;28;20028;-70
2022/08/11 00:40:35;;;;;;;6.22;5.63;;;18.00;84.90;;;;;;2098442;28;20039;-71
2022/08/11 00:42:02;;;;;;;6.20;5.60;;;18.00;85.10;;;;;;2096962;28;20095;-71
2022/08/11 00:43:15;;;;;;;9.43;6.00;;;18.00;85.50;;;;;;2088594;28;20059;-71
2022/08/11 00:44:41;;;;;;;7.57;6.10;;;17.90;85.70;;;;;;2104593;28;20098;-71
2022/08/11 00:45:54;;;;;;;6.70;5.95;;;17.90;85.90;;;;;;2104777;28;20111;-71
2022/08/11 00:47:12;;;;;;;7.65;5.90;;;17.90;86.10;;;;;;2104567;28;20558;-71
2022/08/11 00:48:31;;;;;;;6.10;5.50;;;17.80;86.30;;;;;;2104823;28;20451;-71
2022/08/11 00:49:57;;;;;;;6.68;6.00;;;17.80;86.50;;;;;;2104935;28;20028;-70
2022/08/11 00:51:35;;;;;;;6.53;5.65;;;17.80;86.70;;;;;;2110326;28;20340;-70
2022/08/11 00:53:04;;;;;;;6.15;5.55;;;17.80;86.90;;;;;;2111271;28;20036;-71
2022/08/11 00:54:34;;;;;;;7.63;5.90;;;17.80;87.20;;;;;;2111893;28;20036;-71
2022/08/11 00:55:50;;;;;;;7.22;5.93;;;17.70;87.40;;;;;;2086234;28;20033;-71
2022/08/11 00:57:15;;;;;;;6.97;5.90;;;17.70;87.60;;;;;;2120198;28;20035;-71
2022/08/11 00:58:44;;;;;;;6.90;6.20;;;17.70;87.90;;;;;;2115112;28;20143;-71
2022/08/11 01:00:12;;;;;;;6.60;5.85;;;17.70;88.10;;;;;;2105167;28;20030;-71
2022/08/11 01:01:12;;;;;;;6.18;5.57;;;17.70;88.40;;;;;;2100315;28;20565;-70
2022/08/11 01:02:16;;;;;;;6.53;5.80;;;17.60;88.50;;;;;;2106025;28;20024;-71
2022/08/11 01:03:44;;;;;;;7.75;6.07;;;17.60;88.80;;;;;;2105577;28;20028;-72
2022/08/11 01:05:22;;;;;;;7.50;5.72;;;17.60;89.00;;;;;;2104093;28;20724;-71
2022/08/11 01:06:49;;;;;;;6.47;5.88;;;17.60;89.30;;;;;;2097155;28;20032;-71
2022/08/11 01:08:16;;;;;;;6.75;5.88;;;17.60;89.60;;;;;;2104707;28;20020;-70
2022/08/11 01:09:17;;;;;;;6.88;5.90;;;17.50;90.00;;;;;;2100374;28;20777;-71
2022/08/11 01:10:39;;;;;;;6.70;6.10;;;17.50;90.00;;;;;;2104959;28;20031;-71
2022/08/11 01:12:01;;;;;;;6.95;6.25;;;17.50;90.20;;;;;;2105121;28;20024;-71
2022/08/11 01:13:24;;;;;;;7.68;6.15;;;17.50;90.30;;;;;;2098272;28;20039;-71
2022/08/11 01:14:43;;;;;;;7.53;6.00;;;17.50;90.40;;;;;;2105287;28;20046;-72
2022/08/11 01:16:38;;;;;;;7.10;6.00;;;17.40;90.60;;;;;;2105952;28;20027;-71
2022/08/11 01:17:39;;;;;;;7.47;5.80;;;17.40;90.70;;;;;;2063435;28;20034;-73
2022/08/11 01:19:18;;;;;;;7.53;5.63;;;17.40;90.90;;;;;;2047132;28;20398;-73
2022/08/11 01:21:07;;;;;;;7.85;6.05;;;17.40;91.00;;;;;;2089953;28;20105;-72
2022/08/11 01:22:35;;;;;;;7.03;6.00;;;17.30;91.30;;;;;;2078506;28;20443;-72
2022/08/11 01:23:42;;;;;;;7.07;6.10;;;17.30;91.40;;;;;;2090117;28;20528;-73
2022/08/11 01:25:02;;;;;;;7.32;6.13;;;17.30;91.40;;;;;;2103803;28;20048;-70
2022/08/11 01:26:44;;;;;;;8.05;6.32;;;17.30;91.50;;;;;;2097969;28;20021;-71
2022/08/11 01:28:14;;;;;;;7.03;6.25;;;17.30;91.50;;;;;;2079154;28;20034;-70
2022/08/11 01:29:17;;;;;;;7.32;6.15;;;17.30;91.70;;;;;;2065836;28;20034;-71
2022/08/11 01:30:39;;;;;;;9.38;6.30;;;17.20;91.70;;;;;;2075534;28;20104;-71
2022/08/11 01:32:06;;;;;;;7.53;6.25;;;17.30;91.90;;;;;;2099163;28;20558;-71
2022/08/11 01:33:26;;;;;;;7.13;5.88;;;17.20;92.10;;;;;;2098634;28;20078;-71
2022/08/11 01:34:49;;;;;;;8.70;6.22;;;17.20;92.30;;;;;;2104828;28;20024;-71
2022/08/11 01:36:21;;;;;;;7.07;6.32;;;17.20;92.30;;;;;;2104368;28;20028;-71
2022/08/11 01:37:52;;;;;;;8.68;6.60;;;17.20;92.50;;;;;;2100658;28;20024;-71
2022/08/11 01:39:48;;;;;;;7.20;6.45;;;17.10;92.60;;;;;;2104905;28;20032;-71
2022/08/11 01:40:48;;;;;;;6.90;6.20;;;17.20;92.80;;;;;;2086988;28;20036;-71
2022/08/11 01:46:09;;;;;;;9.50;6.55;;;17.10;92.90;;;;;;2096182;28;20047;-72
2022/08/11 01:47:50;;;;;;;8.10;6.53;;;17.10;93.00;;;;;;2087487;28;20542;-71
2022/08/11 01:49:12;;;;;;;7.55;6.75;;;17.10;93.10;;;;;;2104293;28;20462;-71
2022/08/11 01:50:31;;;;;;;7.25;6.55;;;17.10;93.30;;;;;;2099478;28;20029;-71
2022/08/11 01:51:35;;;;;;;11.95;6.40;;;17.00;93.40;;;;;;2105173;28;20435;-72
2022/08/11 01:52:51;;;;;;;8.73;6.30;;;17.00;93.50;;;;;;2104855;28;20124;-70
2022/08/11 01:54:03;;;;;;;7.80;6.70;;;17.00;93.60;;;;;;2105065;28;20031;-71
2022/08/11 01:55:16;;;;;;;7.30;6.60;;;17.00;93.70;;;;;;2098108;28;20096;-71
2022/08/11 01:56:40;;;;;;;7.65;6.60;;;16.90;93.80;;;;;;2104930;28;20058;-71
2022/08/11 01:58:05;;;;;;;7.30;6.60;;;16.90;93.90;;;;;;2105380;28;20035;-71
2022/08/11 01:59:21;;;;;;;8.13;6.50;;;16.90;94.00;;;;;;2102239;28;20051;-71
2022/08/11 02:00:29;;;;;;;6.95;6.25;;;16.90;94.10;;;;;;2106461;28;20040;-72
2022/08/11 02:01:52;;;;;;;7.80;6.78;;;16.90;94.10;;;;;;2106151;28;20012;-72
2022/08/11 02:03:02;;;;;;;7.32;6.63;;;16.90;94.10;;;;;;2106111;28;20604;-73
2022/08/11 02:04:20;;;;;;;8.55;6.57;;;16.90;94.20;;;;;;2097929;28;20028;-73
2022/08/11 02:05:59;;;;;;;7.53;6.63;;;16.80;94.30;;;;;;2106460;28;20028;-71
2022/08/11 02:07:19;;;;;;;8.15;6.60;;;16.90;94.40;;;;;;2109089;28;20062;-70
2022/08/11 02:08:29;;;;;;;6.85;6.15;;;16.80;94.50;;;;;;2106759;28;20028;-72
2022/08/11 02:09:55;;;;;;;7.60;6.13;;;16.80;94.60;;;;;;2106663;28;20020;-72
2022/08/11 02:11:35;;;;;;;6.85;6.20;;;16.80;94.60;;;;;;2097466;28;20032;-72
2022/08/11 02:12:42;;;;;;;7.22;6.43;;;16.80;94.70;;;;;;2073750;28;20052;-72
2022/08/11 02:14:09;;;;;;;7.07;6.38;;;16.80;94.80;;;;;;2104898;28;20032;-72
2022/08/11 02:15:43;;;;;;;9.40;6.75;;;16.70;95.00;;;;;;2105726;28;20051;-70
2022/08/11 02:16:56;;;;;;;7.50;6.68;;;16.70;95.40;;;;;;2105207;28;20031;-72
2022/08/11 02:18:20;;;;;;;7.47;6.68;;;16.70;95.40;;;;;;2105572;28;20012;-71
2022/08/11 02:24:43;;;;;;;7.47;6.60;;;16.70;95.30;;;;;;2106809;28;20051;-71
2022/08/11 02:26:02;;;;;;;8.88;6.43;;;16.70;95.40;;;;;;2106679;28;20537;-71
2022/08/11 02:27:15;;;;;;;7.65;6.50;;;16.70;95.50;;;;;;2106436;28;20107;-71
2022/08/11 02:28:15;;;;;;;7.43;6.40;;;16.60;95.60;;;;;;2105648;28;20039;-71
2022/08/11 02:29:25;;;;;;;6.75;6.13;;;16.60;95.70;;;;;;2105794;28;20447;-71
2022/08/11 02:30:31;;;;;;;8.48;6.40;;;16.60;95.80;;;;;;2105859;28;20036;-71
2022/08/11 02:33:23;;;;;;;6.75;6.13;;;16.60;95.80;;;;;;2105619;28;20841;-71
2022/08/11 02:34:44;;;;;;;7.65;6.60;;;16.60;95.90;;;;;;2104658;28;20486;-71
2022/08/11 02:35:55;;;;;;;6.97;6.28;;;16.60;95.90;;;;;;2105178;28;20134;-70
2022/08/11 02:37:23;;;;;;;10.38;6.70;;;16.50;96.00;;;;;;2105662;28;20036;-71
2022/08/11 02:38:31;;;;;;;7.25;6.35;;;16.50;96.10;;;;;;2105403;28;20028;-71
2022/08/11 02:39:45;;;;;;;7.22;6.53;;;16.50;96.20;;;;;;2104755;28;20760;-71
2022/08/11 02:42:46;;;;;;;7.90;6.22;;;16.40;96.30;;;;;;2106721;28;20032;-71
2022/08/11 02:44:02;;;;;;;7.18;6.45;;;16.40;96.50;;;;;;2107258;28;20230;-71
2022/08/11 02:45:53;;;;;;;7.35;6.57;;;16.40;96.60;;;;;;2107243;28;20118;-71
2022/08/11 02:47:26;;;;;;;7.38;6.65;;;16.40;96.70;;;;;;2107614;28;20531;-72
2022/08/11 02:50:21;;;;;;;;;;;16.30;96.90;;;;;;2106626;28;20071;-71
2022/08/11 02:51:45;;;;;;;8.02;6.50;;;16.30;97.10;;;;;;2106370;28;19908;-71
2022/08/11 02:53:25;;;;;;;7.60;6.60;;;16.30;97.20;;;;;;2100641;28;20036;-72
2022/08/11 02:54:55;;;;;;;8.27;6.93;;;16.30;97.40;;;;;;2104994;28;20115;-72
2022/08/11 02:56:32;;;;;;;7.25;6.55;;;16.30;97.40;;;;;;2105365;28;20071;-72
2022/08/11 02:57:40;;;;;;;7.80;7.00;;;16.20;97.40;;;;;;2105429;28;20079;-72
2022/08/11 03:00:25;;;;;;;8.25;7.38;;;16.20;97.60;;;;;;2105357;28;20107;-72
2022/08/11 03:01:39;;;;;;;10.75;8.25;;;16.20;97.80;;;;;;2105068;28;20406;-72
2022/08/11 03:03:08;;;;;;;11.18;8.40;;;16.20;97.70;;;;;;2105402;28;20059;-70
2022/08/11 03:04:20;;;;;;;8.93;7.80;;;16.20;97.90;;;;;;2105590;28;20024;-70
2022/08/11 03:06:00;;;;;;;8.60;7.47;;;16.10;97.90;;;;;;2105545;28;20078;-70
2022/08/11 03:07:39;;;;;;;9.65;7.28;;;16.10;98.10;;;;;;2094395;28;20528;-70
2022/08/11 03:08:51;;;;;;;9.00;7.07;;;16.10;98.10;;;;;;2105165;28;20024;-69
2022/08/11 03:10:16;;;;;;;9.13;6.78;;;16.10;98.20;;;;;;2105074;28;20118;-70
2022/08/11 03:17:56;;;;;;;8.35;7.53;;;16.00;98.90;;;;;;2105038;28;20036;-71
2022/08/11 03:19:35;;;;;;;8.57;6.65;;;16.00;99.00;;;;;;2105072;28;20495;-71
2022/08/11 03:20:44;;;;;;;8.02;7.13;;;15.90;99.10;;;;;;2104453;28;20063;-71
2022/08/11 03:22:15;;;;;;;7.93;6.90;;;15.90;99.30;;;;;;2104826;28;20028;-71
2022/08/11 03:23:36;;;;;;;;;;;15.90;99.40;;;;;;2105983;28;20024;-71
2022/08/11 03:24:52;;;;;;;8.50;7.70;;;15.90;99.50;;;;;;2105068;28;20686;-71
2022/08/11 03:26:00;;;;;;;8.70;7.40;;;15.90;99.70;;;;;;2110821;28;20546;-71
2022/08/11 03:27:08;;;;;;;9.48;7.72;;;15.90;99.80;;;;;;2104428;28;20481;-71
2022/08/11 03:28:27;;;;;;;8.98;7.45;;;15.90;99.70;;;;;;2104190;28;20107;-71
2022/08/11 03:29:34;;;;;;;8.70;7.80;;;15.90;99.80;;;;;;2105145;28;20526;-71
2022/08/11 03:30:58;;;;;;;8.90;7.88;;;15.90;99.80;;;;;;2105076;28;20074;-71
2022/08/11 03:32:27;;;;;;;8.40;7.25;;;15.90;99.90;;;;;;2105142;28;20032;-71
2022/08/11 03:34:54;;;;;;;8.25;7.10;;;15.90;99.90;;;;;;2104828;28;20032;-71
2022/08/11 03:36:08;;;;;;;8.13;7.00;;;15.90;99.90;;;;;;2110851;28;20023;-71
2022/08/11 03:37:49;;;;;;;8.00;7.20;;;15.90;99.90;;;;;;2113197;28;20485;-71
2022/08/11 03:39:04;;;;;;;8.38;7.35;;;15.90;99.90;;;;;;2113323;28;20500;-71
2022/08/11 03:42:09;;;;;;;8.88;7.22;;;15.90;99.90;;;;;;2097522;28;20031;-71
2022/08/11 03:43:25;;;;;;;8.75;7.53;;;15.90;99.90;;;;;;2097429;28;20032;-71
2022/08/11 03:44:38;;;;;;;8.75;7.85;;;15.90;99.90;;;;;;2096859;28;20487;-71
2022/08/11 03:46:13;;;;;;;9.65;7.68;;;15.90;99.90;;;;;;2097226;28;20020;-71
2022/08/11 03:47:36;;;;;;;8.38;7.47;;;15.90;99.90;;;;;;2097976;28;20033;-71
2022/08/11 03:48:53;;;;;;;9.27;7.75;;;15.90;99.90;;;;;;2104285;28;20016;-71
2022/08/11 03:50:41;;;;;;;8.30;7.25;;;15.80;99.90;;;;;;2106411;28;20024;-71
2022/08/11 03:51:54;;;;;;;8.18;7.35;;;15.90;99.90;;;;;;2106110;28;20471;-71
2022/08/11 03:53:33;;;;;;;10.52;7.88;;;15.80;99.90;;;;;;2110567;28;20027;-71
2022/08/11 03:54:39;;;;;;;9.85;7.60;;;15.80;99.90;;;;;;2113199;28;20055;-72
2022/08/11 03:56:10;;;;;;;10.43;7.70;;;15.80;99.90;;;;;;2113702;28;20500;-72
2022/08/11 03:57:45;;;;;;;10.45;7.68;;;15.80;99.90;;;;;;2100149;28;20068;-71
2022/08/11 03:59:06;;;;;;;8.10;7.30;;;15.80;99.90;;;;;;2113198;28;20040;-72
2022/08/11 04:00:13;;;;;;;8.07;7.28;;;15.80;99.90;;;;;;2112823;28;20192;-71
2022/08/11 04:01:57;;;;;;;8.70;7.30;;;15.90;99.90;;;;;;2112737;28;20055;-70
2022/08/11 04:03:26;;;;;;;9.95;7.78;;;15.90;99.90;;;;;;2085215;28;20042;-71
2022/08/11 04:04:48;;;;;;;9.93;7.55;;;15.90;99.90;;;;;;2104493;28;20020;-71
2022/08/11 04:06:10;;;;;;;8.23;7.00;;;15.90;99.90;;;;;;2104856;28;20023;-70
2022/08/11 04:07:52;;;;;;;8.20;7.40;;;15.80;99.90;;;;;;2105195;28;20036;-72
2022/08/11 04:09:45;;;;;;;8.55;7.65;;;15.90;99.90;;;;;;2105018;28;20435;-72
2022/08/11 04:11:23;;;;;;;9.43;7.75;;;15.90;99.90;;;;;;2104876;28;20468;-72
2022/08/11 04:12:54;;;;;;;11.05;7.97;;;15.90;99.90;;;;;;2104904;28;20162;-72
2022/08/11 04:16:01;;;;;;;10.32;7.70;;;15.90;99.90;;;;;;2103985;28;20036;-71
2022/08/11 04:17:18;;;;;;;12.30;7.68;;;15.90;99.90;;;;;;2104341;28;20035;-72
2022/08/11 04:18:54;;;;;;;8.18;7.35;;;15.90;99.90;;;;;;2104417;28;20039;-73
2022/08/11 04:20:07;;;;;;;10.32;7.60;;;15.90;99.90;;;;;;2105134;28;20048;-71
2022/08/11 04:21:45;;;;;;;10.02;7.80;;;15.90;99.90;;;;;;2105264;28;20043;-70
2022/08/11 04:22:45;;;;;;;8.02;7.18;;;15.90;99.90;;;;;;2105102;28;20356;-72
2022/08/11 04:24:23;;;;;;;9.25;7.32;;;15.90;99.90;;;;;;2104889;28;20054;-73
2022/08/11 04:26:03;;;;;;;8.90;7.53;;;16.00;99.90;;;;;;2103934;28;20125;-71
2022/08/11 04:27:28;;;;;;;8.77;7.57;;;16.00;99.90;;;;;;2075855;28;20030;-73
2022/08/11 04:28:51;;;;;;;8.23;7.15;;;16.00;99.90;;;;;;2070381;28;20033;-72
2022/08/11 04:30:00;;;;;;;10.35;7.82;;;16.00;99.90;;;;;;2099671;28;20090;-72
2022/08/11 04:31:39;;;;;;;9.07;7.60;;;16.00;99.90;;;;;;2104013;28;20055;-71
2022/08/11 04:32:58;;;;;;;9.02;7.35;;;16.10;99.90;;;;;;2075433;28;20427;-72
2022/08/11 04:34:30;;;;;;;8.75;7.55;;;16.10;99.90;;;;;;2104523;28;20498;-71
2022/08/11 04:35:59;;;;;;;8.88;7.03;;;16.20;99.90;;;;;;2104475;28;20044;-73
2022/08/11 04:39:11;;;;;;;10.48;6.93;;;16.80;99.50;;;;;;2104563;28;20393;-73
2022/08/11 04:40:42;;;;;;;7.90;6.35;;;17.50;97.40;;;;;;2104481;28;20032;-74
2022/08/11 04:43:37;;;;;;;8.02;6.57;;;18.30;94.20;;;;;;2104708;28;20051;-73
2022/08/11 04:44:57;;;;;;;10.90;6.65;;;18.80;92.90;;;;;;2103965;28;20035;-74
2022/08/11 04:46:19;;;;;;;8.68;6.80;;;19.00;91.80;;;;;;2104705;28;20152;-73
2022/08/11 05:01:41;;;;;;;7.05;5.90;;;21.20;80.40;;;;;;2107059;28;20040;-72
2022/08/11 05:03:06;;;;;;;7.97;6.28;;;21.40;79.10;;;;;;2104717;28;20020;-72
2022/08/11 05:06:04;;;;;;;7.65;6.40;;;21.60;77.80;;;;;;2104446;28;20032;-72
2022/08/11 05:07:24;;;;;;;7.43;6.20;;;21.80;77.20;;;;;;2104608;28;20040;-72
2022/08/11 05:08:49;;;;;;;10.32;6.30;;;22.00;76.20;;;;;;2104453;28;20089;-72
2022/08/11 05:10:27;;;;;;;11.15;6.30;;;22.00;75.60;;;;;;2104142;28;20031;-73
2022/08/11 05:12:22;;;;;;;9.48;6.25;;;22.10;75.10;;;;;;2104615;28;20043;-73
2022/08/11 05:35:40;;;;;;;9.43;6.18;;;23.80;67.10;;;;;;2105866;28;20470;-72
2022/08/11 05:36:49;;;;;;;9.60;6.22;;;24.00;66.60;;;;;;2106220;28;20020;-71
2022/08/11 05:57:07;;;;;;;12.07;6.35;;;24.20;64.70;;;;;;2106505;28;20028;-71
2022/08/11 05:58:09;;;;;;;8.98;6.63;;;24.20;64.30;;;;;;2106376;28;20024;-73
2022/08/11 05:59:16;;;;;;;10.77;5.90;;;24.30;64.30;;;;;;2106884;28;20055;-73
2022/08/11 06:00:23;;;;;;;9.55;6.60;;;24.30;64.10;;;;;;2100761;28;20070;-73
2022/08/11 06:01:33;;;;;;;8.98;6.22;;;24.40;63.80;;;;;;2099968;28;20020;-73
2022/08/11 06:02:43;;;;;;;9.23;6.47;;;24.40;63.60;;;;;;2105695;28;20024;-72
2022/08/11 06:05:04;;;;;;;8.73;5.97;;;24.30;63.90;;;;;;2107464;28;20028;-72
2022/08/11 06:06:08;;;;;;;10.82;6.15;;;24.20;64.10;;;;;;2107190;28;20031;-75
2022/08/11 06:07:11;;;;;;;7.93;5.90;;;23.90;64.40;;;;;;2107397;28;20024;-73
2022/08/11 06:08:15;;;;;;;11.40;6.75;;;23.70;65.20;;;;;;2107896;28;20027;-73
2022/08/11 06:09:46;;;;;;;8.60;6.50;;;23.40;66.10;;;;;;2106864;28;20024;-71
2022/08/11 06:10:48;;;;;;;6.82;6.10;;;23.00;67.50;;;;;;2102733;28;20028;-72
2022/08/11 06:11:50;;;;;;;6.47;5.55;;;22.70;68.40;;;;;;2106605;28;20012;-72
2022/08/11 06:12:57;;;;;;;6.47;5.88;;;22.40;69.00;;;;;;2107583;28;20024;-74
2022/08/11 06:14:01;;;;;;;7.45;5.90;;;22.20;70.00;;;;;;2099324;28;20040;-74
2022/08/11 06:15:05;;;;;;;7.93;6.20;;;22.00;70.90;;;;;;2092757;28;20430;-73
2022/08/11 06:16:07;;;;;;;7.03;6.05;;;21.80;71.50;;;;;;2105956;28;20049;-73
2022/08/11 06:17:09;;;;;;;6.25;5.65;;;21.70;72.10;;;;;;2106449;28;20024;-73
2022/08/11 06:18:14;;;;;;;11.00;6.00;;;21.50;72.60;;;;;;2107338;28;20056;-72
2022/08/11 06:19:20;;;;;;;10.23;5.93;;;21.40;73.00;;;;;;2106127;28;20086;-72
2022/08/11 06:20:22;;;;;;;9.38;6.22;;;21.30;73.30;;;;;;2106052;28;20440;-73
2022/08/11 06:21:24;;;;;;;6.30;5.55;;;21.20;73.70;;;;;;2106640;28;20507;-74
2022/08/11 06:22:31;;;;;;;6.47;5.68;;;21.20;74.10;;;;;;2105762;28;20034;-72
2022/08/11 06:23:36;;;;;;;6.30;5.57;;;21.10;74.50;;;;;;2107590;28;20024;-74
2022/08/11 06:24:49;;;;;;;7.25;6.22;;;21.00;74.60;;;;;;2109269;28;20028;-75
2022/08/11 06:25:54;;;;;;;11.25;6.25;;;21.00;74.80;;;;;;2108939;28;20052;-74
2022/08/11 06:26:55;;;;;;;8.60;5.90;;;20.90;75.10;;;;;;2106045;28;20035;-73
2022/08/11 06:27:57;;;;;;;6.82;5.90;;;20.90;75.40;;;;;;2106047;28;20106;-74
2022/08/11 06:29:00;;;;;;;8.00;6.10;;;20.80;75.70;;;;;;2105698;28;20031;-75
2022/08/11 06:30:12;;;;;;;9.23;5.88;;;20.80;76.10;;;;;;2105904;28;20035;-75
2022/08/11 06:31:23;;;;;;;9.50;5.90;;;20.70;76.10;;;;;;2105149;28;20032;-74
2022/08/11 06:32:31;;;;;;;10.50;6.63;;;20.80;76.40;;;;;;2106070;28;20031;-75
2022/08/11 06:34:00;;;;;;;7.78;6.40;;;20.70;76.10;;;;;;2106086;28;20032;-76
2022/08/11 06:35:25;;;;;;;9.82;6.00;;;20.70;76.40;;;;;;2096171;28;20509;-74
2022/08/11 06:36:52;;;;;;;10.20;6.50;;;20.70;76.40;;;;;;2106074;28;20073;-75
2022/08/11 06:38:11;;;;;;;9.68;6.57;;;20.70;76.80;;;;;;2110649;28;20043;-74
2022/08/11 06:39:26;;;;;;;11.70;7.18;;;20.60;78.40;;;;;;2104037;28;20058;-77
2022/08/11 06:40:36;;;;;;;10.48;6.88;;;20.60;79.00;;;;;;2103117;28;20032;-75
2022/08/11 06:41:50;;;;;;;7.75;6.43;;;20.60;79.20;;;;;;2110155;28;20039;-74
2022/08/11 06:43:22;;;;;;;11.60;6.50;;;20.60;79.00;;;;;;2109279;28;20036;-72
2022/08/11 06:44:38;;;;;;;9.35;6.57;;;20.60;79.20;;;;;;2105283;28;20024;-72
2022/08/11 06:46:03;;;;;;;10.15;6.40;;;20.60;79.10;;;;;;2108013;28;20214;-72
2022/08/11 06:47:08;;;;;;;8.48;6.00;;;20.60;79.10;;;;;;2107320;28;20028;-74
2022/08/11 06:48:19;;;;;;;11.73;6.82;;;20.70;79.10;;;;;;2100512;28;20040;-74
2022/08/11 06:51:12;;;;;;;11.48;6.65;;;20.70;79.10;;;;;;2106780;28;20869;-72
2022/08/11 06:52:15;;;;;;;11.15;6.88;;;20.70;79.30;;;;;;2107813;28;20046;-71
2022/08/11 06:53:21;;;;;;;10.23;6.60;;;20.60;79.40;;;;;;2110182;28;20024;-73
2022/08/11 06:54:29;;;;;;;10.20;6.13;;;20.70;79.30;;;;;;2109679;28;20024;-73
2022/08/11 07:01:10;;;;;;;11.38;6.20;;;20.60;79.30;;;;;;2105903;28;20419;-72
2022/08/11 07:02:24;;;;;;;11.27;6.30;;;20.60;79.60;;;;;;2105683;28;20028;-72
2022/08/11 07:03:27;;;;;;;10.82;6.85;;;20.70;79.50;;;;;;2105867;28;20482;-72
2022/08/11 07:04:42;;;;;;;11.85;6.30;;;20.80;79.30;;;;;;2105343;28;20489;-73
2022/08/11 07:06:14;;;;;;;8.82;6.40;;;20.80;79.70;;;;;;2105961;28;20085;-73
2022/08/11 07:16:33;;;;;;;8.15;5.90;;;21.00;77.90;;;;;;2112648;28;19919;-72
2022/08/11 07:17:41;;;;;;;9.73;6.10;;;21.10;77.50;;;;;;2114124;28;20028;-73
2022/08/11 07:29:54;;;;;;;10.65;5.93;;;21.50;76.40;;;;;;2105610;28;20020;-71
2022/08/11 07:31:06;;;;;;;11.68;5.95;;;21.50;75.90;;;;;;2106082;28;20095;-72
2022/08/11 07:32:15;;;;;;;10.30;5.72;;;21.50;75.60;;;;;;2106060;28;20036;-72
2022/08/11 07:33:27;;;;;;;9.48;6.00;;;21.50;75.70;;;;;;2105664;28;20039;-72
2022/08/11 07:34:34;;;;;;;9.38;5.80;;;21.60;75.60;;;;;;2105240;28;20450;-73
2022/08/11 07:36:06;;;;;;;12.82;6.18;;;21.60;75.70;;;;;;2105189;28;20036;-71
2022/08/11 07:37:16;;;;;;;9.90;5.60;;;21.60;75.20;;;;;;2093203;28;20043;-71
2022/08/11 07:38:43;;;;;;;9.45;5.82;;;21.60;75.40;;;;;;2105589;28;20429;-74
2022/08/11 07:39:46;;;;;;;6.22;5.53;;;21.70;75.20;;;;;;2105155;28;20097;-72
2022/08/11 07:40:47;;;;;;;6.38;5.53;;;21.70;75.10;;;;;;2105569;28;20024;-72
2022/08/11 07:41:49;;;;;;;10.88;5.93;;;21.70;75.20;;;;;;2105212;28;20031;-72
2022/08/11 07:42:51;;;;;;;6.63;5.30;;;21.90;75.20;;;;;;2105382;28;20375;-73
2022/08/11 07:44:07;;;;;;;11.20;5.68;;;21.90;75.50;;;;;;2105508;28;20478;-74
2022/08/11 07:53:21;;;;;;;9.05;5.55;;;22.20;73.60;;;;;;2105124;28;20036;-72
2022/08/11 07:54:23;;;;;;;8.30;5.57;;;22.20;73.20;;;;;;2105060;28;20034;-72
2022/08/11 07:55:25;;;;;;;8.77;5.40;;;22.30;73.00;;;;;;2104745;28;20027;-73
2022/08/11 07:56:26;;;;;;;7.43;5.40;;;22.30;72.90;;;;;;2103976;28;20032;-72
2022/08/11 08:18:54;;;;;;;11.00;5.00;;;23.30;70.20;;;;;;2104717;28;20398;-73
2022/08/11 08:19:55;;;;;;;9.00;4.85;;;23.40;70.20;;;;;;2104843;28;20060;-73
2022/08/11 08:21:10;;;;;;;10.85;4.80;;;23.40;70.10;;;;;;2104812;28;20095;-73
2022/08/11 08:22:16;;;;;;;13.50;7.45;;;23.50;69.40;;;;;;2104762;28;20052;-72
2022/08/11 08:23:31;;;;;;;15.52;7.80;;;23.60;69.20;;;;;;2104636;28;20039;-72
2022/08/11 08:24:33;;;;;;;11.52;5.50;;;23.60;68.70;;;;;;2104864;28;20504;-73
2022/08/11 08:25:39;;;;;;;12.57;6.57;;;23.70;70.00;;;;;;2104709;28;20965;-73
2022/08/11 08:26:57;;;;;;;10.48;5.18;;;23.70;69.00;;;;;;2104753;28;20016;-71
2022/08/11 08:28:00;;;;;;;10.95;5.10;;;23.80;67.90;;;;;;2103918;28;20032;-72
2022/08/11 08:31:47;;;;;;;6.88;4.70;;;23.90;67.90;;;;;;2104860;28;20127;-73
2022/08/11 08:32:48;;;;;;;8.90;4.68;;;23.90;67.00;;;;;;2104917;28;20069;-71
2022/08/11 08:33:50;;;;;;;9.15;4.70;;;23.80;66.20;;;;;;2104811;28;20611;-71
2022/08/11 08:34:54;;;;;;;8.75;4.63;;;23.80;66.20;;;;;;2103755;28;20020;-71
2022/08/11 08:36:10;;;;;;;7.72;4.40;;;23.90;66.10;;;;;;2104032;28;20536;-73
2022/08/11 08:37:11;;;;;;;12.77;5.00;;;24.00;65.70;;;;;;2095615;28;20025;-71
2022/08/11 08:38:13;;;;;;;8.95;4.90;;;24.00;66.00;;;;;;2095546;28;20099;-71
2022/08/11 08:39:17;;;;;;;10.02;4.47;;;24.10;65.20;;;;;;2103963;28;20038;-72
2022/08/11 08:40:18;;;;;;;8.25;4.18;;;24.10;64.60;;;;;;2104051;28;20115;-71
2022/08/11 08:41:24;;;;;;;7.22;4.30;;;24.20;64.80;;;;;;2104482;28;20531;-72
2022/08/11 08:42:30;;;;;;;9.40;4.15;;;24.20;64.80;;;;;;2104601;28;20032;-73
2022/08/11 08:43:33;;;;;;;6.00;4.18;;;24.10;64.20;;;;;;2104538;28;20402;-73
2022/08/11 08:44:38;;;;;;;4.60;4.03;;;24.10;64.20;;;;;;2104540;28;20428;-71
2022/08/11 08:45:41;;;;;;;7.95;3.95;;;24.00;64.50;;;;;;2104671;28;20039;-73
2022/08/11 08:46:44;;;;;;;6.90;3.67;;;24.00;64.80;;;;;;2095589;28;20020;-72
2022/08/11 08:48:00;;;;;;;8.70;4.53;;;24.00;65.00;;;;;;2095847;28;20024;-72
2022/08/11 08:49:02;;;;;;;7.22;4.22;;;24.00;63.90;;;;;;2104035;28;20524;-74
2022/08/11 08:50:09;;;;;;;4.20;3.60;;;24.10;63.30;;;;;;2104471;28;20483;-73
2022/08/11 08:52:39;;;;;;;5.00;3.67;;;24.10;62.70;;;;;;2102598;28;20667;-76
2022/08/11 08:53:45;;;;;;;3.70;3.40;;;24.20;62.30;;;;;;2104835;28;20046;-75
2022/08/11 08:54:52;;;;;;;3.78;3.40;;;24.20;62.10;;;;;;2102998;28;20026;-72
2022/08/11 08:55:55;;;;;;;4.47;3.40;;;24.20;62.00;;;;;;2096521;28;20016;-75
2022/08/11 08:56:56;;;;;;;4.20;3.45;;;24.20;61.90;;;;;;2104696;28;20028;-74
2022/08/11 08:57:59;;;;;;;6.85;3.55;;;24.30;61.80;;;;;;2103595;28;20130;-76
2022/08/11 08:59:04;;;;;;;3.75;3.40;;;24.20;61.70;;;;;;2103566;28;20494;-73
2022/08/11 09:00:06;;;;;;;4.75;3.58;;;24.20;61.80;;;;;;2103627;28;20036;-72
2022/08/11 09:01:10;;;;;;;4.88;3.58;;;24.20;61.80;;;;;;2107155;28;20035;-70
2022/08/11 09:02:11;;;;;;;4.85;3.83;;;24.20;61.70;;;;;;2113002;28;20028;-71
2022/08/11 09:03:13;;;;;;;6.60;3.70;;;24.20;60.00;;;;;;2096065;28;20029;-72